createdAt,value
2019-05-26T00:01:09.135Z,101311.14
2019-05-26T00:03:37.577Z,101306.97
2019-05-26T00:06:05.996Z,101307.98
2019-05-26T00:08:34.441Z,101300.78
2019-05-26T00:11:02.892Z,101155.88
2019-05-26T00:13:31.321Z,101298.12
2019-05-26T00:15:59.763Z,101291.95
2019-05-26T00:18:28.200Z,101289.91
2019-05-26T00:20:56.654Z,101293.91
2019-05-26T00:23:25.072Z,101288.83
2019-05-26T00:25:53.534Z,101287.72
2019-05-26T00:28:22.010Z,101284.34
2019-05-26T00:30:50.378Z,101283.00
2019-05-26T00:33:18.822Z,101279.62
2019-05-26T00:35:47.272Z,101277.56
2019-05-26T00:38:15.696Z,101270.17
2019-05-26T00:40:44.193Z,101267.02
2019-05-26T00:43:12.622Z,101261.67
2019-05-26T00:45:41.047Z,101263.23
2019-05-26T00:48:09.484Z,101259.23
2019-05-26T00:50:37.925Z,101260.30
2019-05-26T00:53:06.430Z,101262.36
2019-05-26T00:55:34.866Z,101257.23
2019-05-26T00:58:03.362Z,101250.04
2019-05-26T01:00:40.326Z,101243.09
2019-05-26T01:03:09.596Z,101237.63
2019-05-26T01:05:38.128Z,101161.58
2019-05-26T01:08:08.258Z,101238.56
2019-05-26T01:10:37.017Z,101235.40
2019-05-26T01:13:06.789Z,101232.73
2019-05-26T01:15:35.217Z,101223.64
2019-05-26T01:18:04.115Z,101221.95
2019-05-26T01:20:32.540Z,101222.70
2019-05-26T01:23:00.966Z,101224.04
2019-05-26T01:25:29.402Z,101225.52
2019-05-26T01:27:57.825Z,101223.14
2019-05-26T01:30:37.118Z,101220.47
2019-05-26T01:33:06.533Z,101222.42
2019-05-26T01:35:38.333Z,101221.94
2019-05-26T01:38:22.417Z,101215.03
2019-05-26T01:40:44.995Z,101216.37
2019-05-26T01:43:13.863Z,101211.65
2019-05-26T01:45:42.295Z,101205.95
2019-05-26T01:48:10.734Z,101198.92
2019-05-26T01:50:39.239Z,101199.41
2019-05-26T01:53:07.838Z,101189.92
2019-05-26T01:55:36.291Z,101197.09
2019-05-26T01:58:05.037Z,101199.27
2019-05-26T02:00:33.817Z,101202.79
2019-05-26T02:03:02.253Z,101195.63
2019-05-26T02:05:30.704Z,101196.34
2019-05-26T02:07:59.192Z,101188.19
2019-05-26T02:10:27.629Z,101188.61
2019-05-26T02:12:56.048Z,101186.95
2019-05-26T02:15:25.444Z,101187.00
2019-05-26T02:17:53.860Z,101188.92
2019-05-26T02:20:22.730Z,101182.11
2019-05-26T02:22:51.196Z,101178.67
2019-05-26T02:25:21.746Z,101179.03
2019-05-26T02:27:50.194Z,101177.70
2019-05-26T02:30:20.870Z,101175.11
2019-05-26T02:32:49.337Z,101165.81
2019-05-26T02:35:19.185Z,101167.50
2019-05-26T02:37:47.619Z,101155.42
2019-05-26T02:40:17.393Z,101155.50
2019-05-26T02:42:45.833Z,101143.83
2019-05-26T02:45:19.373Z,101148.23
2019-05-26T02:47:47.827Z,101145.92
2019-05-26T02:50:17.587Z,101145.56
2019-05-26T02:52:46.116Z,101140.38
2019-05-26T02:55:16.545Z,101141.91
2019-05-26T02:57:45.015Z,101138.25
2019-05-26T03:00:14.875Z,101137.48
2019-05-26T03:02:43.879Z,101137.48
2019-05-26T03:05:13.278Z,101135.38
2019-05-26T03:07:43.866Z,101130.59
2019-05-26T03:10:12.933Z,101125.67
2019-05-26T03:12:46.096Z,101128.34
2019-05-26T03:15:16.178Z,101129.27
2019-05-26T03:17:46.097Z,101124.30
2019-05-26T03:20:15.680Z,101125.75
2019-05-26T03:22:45.706Z,101122.52
2019-05-26T03:25:14.313Z,101124.77
2019-05-26T03:27:42.755Z,101123.30
2019-05-26T03:30:11.674Z,101125.69
2019-05-26T03:32:40.115Z,101119.42
2019-05-26T03:35:09.121Z,101119.14
2019-05-26T03:37:37.566Z,101109.72
2019-05-26T03:40:08.498Z,101101.55
2019-05-26T03:42:36.950Z,101100.70
2019-05-26T03:45:06.914Z,101101.27
2019-05-26T03:47:34.610Z,101103.48
2019-05-26T03:50:03.574Z,101101.75
2019-05-26T03:52:32.010Z,101100.19
2019-05-26T03:55:00.604Z,101093.99
2019-05-26T03:57:29.049Z,101088.15
2019-05-26T03:59:57.488Z,101082.77
2019-05-26T04:02:25.929Z,101086.11
2019-05-26T04:04:54.420Z,101083.72
2019-05-26T04:07:22.895Z,101076.53
2019-05-26T04:10:03.748Z,101067.38
2019-05-26T04:12:20.751Z,101059.64
2019-05-26T04:14:49.125Z,101058.12
2019-05-26T04:17:17.557Z,101050.45
2019-05-26T04:19:45.992Z,101042.62
2019-05-26T04:22:14.419Z,101039.69
2019-05-26T04:24:43.446Z,101043.97
2019-05-26T04:27:11.871Z,101037.72
2019-05-26T04:29:40.302Z,101046.59
2019-05-26T04:32:08.739Z,101043.48
2019-05-26T04:34:37.191Z,101037.23
2019-05-26T04:37:05.648Z,101038.92
2019-05-26T04:39:34.071Z,101041.09
2019-05-26T04:42:02.553Z,101033.81
2019-05-26T04:44:30.961Z,101037.25
2019-05-26T04:46:59.394Z,101035.34
2019-05-26T04:49:27.825Z,101040.95
2019-05-26T04:51:56.258Z,101037.94
2019-05-26T04:54:24.690Z,101042.70
2019-05-26T04:56:53.122Z,101033.33
2019-05-26T04:59:21.556Z,101026.75
2019-05-26T05:01:49.990Z,101019.36
2019-05-26T05:04:18.424Z,101018.91
2019-05-26T05:06:46.885Z,101012.59
2019-05-26T05:09:15.306Z,101015.11
2019-05-26T05:11:43.736Z,101011.45
2019-05-26T05:14:12.170Z,101020.22
2019-05-26T05:16:40.679Z,101017.89
2019-05-26T05:19:09.122Z,101008.39
2019-05-26T05:21:37.567Z,101010.73
2019-05-26T05:24:06.022Z,101005.45
2019-05-26T05:26:34.445Z,101007.48
2019-05-26T05:29:02.864Z,101000.93
2019-05-26T05:31:31.298Z,100998.98
2019-05-26T05:33:59.742Z,100993.99
2019-05-26T05:36:28.183Z,100994.68
2019-05-26T05:38:56.603Z,100993.22
2019-05-26T05:41:25.136Z,100994.43
2019-05-26T05:43:53.566Z,100988.09
2019-05-26T05:46:22.003Z,100981.58
2019-05-26T05:48:50.433Z,100985.28
2019-05-26T05:51:18.876Z,100982.47
2019-05-26T05:53:47.298Z,100986.36
2019-05-26T05:56:15.720Z,100985.02
2019-05-26T05:58:44.170Z,100971.12
2019-05-26T06:01:12.622Z,100976.83
2019-05-26T06:03:41.077Z,100971.14
2019-05-26T06:06:09.507Z,100974.51
2019-05-26T06:08:37.959Z,100969.81
2019-05-26T06:11:16.172Z,100968.02
2019-05-26T06:13:36.633Z,100964.33
2019-05-26T06:16:05.144Z,100965.87
2019-05-26T06:18:33.570Z,100964.84
2019-05-26T06:21:01.997Z,100961.02
2019-05-26T06:23:31.192Z,100958.50
2019-05-26T06:25:59.625Z,100956.69
2019-05-26T06:28:28.047Z,100953.83
2019-05-26T06:30:56.629Z,100949.64
2019-05-26T06:33:25.047Z,100944.78
2019-05-26T06:35:53.498Z,100944.27
2019-05-26T06:38:21.929Z,100940.75
2019-05-26T06:40:50.356Z,100944.25
2019-05-26T06:43:18.809Z,100937.70
2019-05-26T06:45:47.228Z,100939.36
2019-05-26T06:48:15.665Z,100936.16
2019-05-26T06:50:44.086Z,100936.16
2019-05-26T06:53:12.527Z,100927.58
2019-05-26T06:55:40.972Z,100933.09
2019-05-26T06:58:09.409Z,100929.72
2019-05-26T07:00:37.844Z,100931.23
2019-05-26T07:03:06.308Z,100925.95
2019-05-26T07:05:34.743Z,100925.92
2019-05-26T07:08:03.234Z,100928.77
2019-05-26T07:10:31.638Z,100930.70
2019-05-26T07:13:00.084Z,100931.13
2019-05-26T07:15:28.508Z,100929.08
2019-05-26T07:17:57.217Z,100930.19
2019-05-26T07:20:25.850Z,100922.78
2019-05-26T07:22:54.306Z,100914.43
2019-05-26T07:25:22.752Z,100915.42
2019-05-26T07:27:51.186Z,100911.10
2019-05-26T07:30:23.420Z,100910.33
2019-05-26T07:32:50.258Z,100912.64
2019-05-26T07:35:18.776Z,100920.76
2019-05-26T07:37:47.201Z,100912.66
2019-05-26T07:40:15.981Z,100913.53
2019-05-26T07:42:44.412Z,100915.36
2019-05-26T07:45:14.153Z,100915.27
2019-05-26T07:47:42.586Z,100912.25
2019-05-26T07:50:12.431Z,100915.58
2019-05-26T07:52:40.996Z,100906.98
2019-05-26T07:55:11.276Z,100908.63
2019-05-26T07:57:39.700Z,100906.62
2019-05-26T08:00:08.978Z,100904.87
2019-05-26T08:02:37.408Z,100908.23
2019-05-26T08:05:07.762Z,100905.30
2019-05-26T08:07:36.718Z,100895.44
2019-05-26T08:10:09.562Z,100891.18
2019-05-26T08:12:38.010Z,100891.14
2019-05-26T08:15:07.098Z,100897.13
2019-05-26T08:17:35.594Z,100801.97
2019-05-26T08:20:06.386Z,100893.38
2019-05-26T08:22:34.833Z,100882.92
2019-05-26T08:25:04.698Z,100881.90
2019-05-26T08:27:33.162Z,100873.14
2019-05-26T08:30:01.644Z,100874.75
2019-05-26T08:32:30.084Z,100875.66
2019-05-26T08:34:58.543Z,100868.41
2019-05-26T08:37:26.991Z,100864.77
2019-05-26T08:39:57.060Z,100861.05
2019-05-26T08:42:28.943Z,100861.55
2019-05-26T08:44:55.651Z,100850.69
2019-05-26T08:47:24.098Z,100850.98
2019-05-26T08:49:52.535Z,100847.23
2019-05-26T08:52:20.991Z,100847.02
2019-05-26T08:54:49.444Z,100848.87
2019-05-26T08:57:17.872Z,100850.18
2019-05-26T08:59:46.485Z,100842.34
2019-05-26T09:02:14.934Z,100847.37
2019-05-26T09:04:43.377Z,100842.09
2019-05-26T09:07:11.803Z,100840.59
2019-05-26T09:09:40.402Z,100846.27
2019-05-26T09:12:08.810Z,100832.54
2019-05-26T09:14:37.242Z,100838.30
2019-05-26T09:17:05.953Z,100839.23
2019-05-26T09:19:34.382Z,100839.38
2019-05-26T09:22:02.974Z,100836.75
2019-05-26T09:24:31.407Z,100837.33
2019-05-26T09:26:59.847Z,100832.38
2019-05-26T09:29:28.295Z,100833.35
2019-05-26T09:31:56.742Z,100825.77
2019-05-26T09:34:25.306Z,100831.02
2019-05-26T09:36:56.877Z,100828.71
2019-05-26T09:39:23.889Z,100830.45
2019-05-26T09:41:52.363Z,100838.02
2019-05-26T09:44:20.792Z,100838.65
2019-05-26T09:46:49.259Z,100837.73
2019-05-26T09:49:17.751Z,100837.97
2019-05-26T09:51:46.206Z,100838.62
2019-05-26T09:54:14.700Z,100838.09
2019-05-26T09:56:43.143Z,100834.52
2019-05-26T09:59:11.698Z,100834.94
2019-05-26T10:01:40.191Z,100835.21
2019-05-26T10:04:08.621Z,100839.58
2019-05-26T10:06:37.070Z,100838.14
2019-05-26T10:09:08.558Z,100831.10
2019-05-26T10:11:37.121Z,100835.17
2019-05-26T10:14:05.992Z,100839.59
2019-05-26T10:16:34.447Z,100837.61
2019-05-26T10:19:02.918Z,100831.63
2019-05-26T10:21:31.388Z,100833.53
2019-05-26T10:23:59.883Z,100834.25
2019-05-26T10:26:28.275Z,100827.69
2019-05-26T10:29:00.236Z,100832.90
2019-05-26T10:31:26.889Z,100826.34
2019-05-26T10:33:55.313Z,100815.06
2019-05-26T10:36:24.125Z,100824.27
2019-05-26T10:38:52.545Z,100812.20
2019-05-26T10:41:20.974Z,100824.39
2019-05-26T10:43:49.463Z,100818.58
2019-05-26T10:46:18.513Z,100817.41
2019-05-26T10:48:46.936Z,100820.35
2019-05-26T10:51:15.362Z,100823.55
2019-05-26T10:53:43.812Z,100830.95
2019-05-26T10:56:12.235Z,100827.03
2019-05-26T10:58:40.672Z,100833.62
2019-05-26T11:01:09.107Z,100817.53
2019-05-26T11:03:37.614Z,100826.96
2019-05-26T11:06:06.044Z,100826.33
2019-05-26T11:08:34.474Z,100820.00
2019-05-26T11:11:02.902Z,100816.49
2019-05-26T11:13:31.343Z,100817.70
2019-05-26T11:15:59.797Z,100809.51
2019-05-26T11:18:28.247Z,100806.37
2019-05-26T11:20:56.656Z,100796.23
2019-05-26T11:23:25.102Z,100798.41
2019-05-26T11:25:53.529Z,100795.12
2019-05-26T11:28:22.046Z,100788.84
2019-05-26T11:30:50.477Z,100781.70
2019-05-26T11:33:18.977Z,100782.81
2019-05-26T11:35:47.447Z,100786.44
2019-05-26T11:38:15.887Z,100779.94
2019-05-26T11:40:44.334Z,100774.59
2019-05-26T11:43:16.793Z,100767.93
2019-05-26T11:45:42.934Z,100763.92
2019-05-26T11:48:11.366Z,100760.23
2019-05-26T11:50:39.820Z,100752.78
2019-05-26T11:53:08.244Z,100748.87
2019-05-26T11:55:36.705Z,100744.27
2019-05-26T11:58:05.144Z,100742.36
2019-05-26T12:00:33.602Z,100740.56
2019-05-26T12:03:05.471Z,100742.09
2019-05-26T12:05:34.425Z,100743.20
2019-05-26T12:08:02.800Z,100742.06
2019-05-26T12:10:31.660Z,100738.30
2019-05-26T12:13:00.127Z,100728.78
2019-05-26T12:15:29.278Z,100735.20
2019-05-26T12:17:57.717Z,100732.64
2019-05-26T12:20:26.163Z,100724.38
2019-05-26T12:22:54.600Z,100725.03
2019-05-26T12:25:23.021Z,100726.31
2019-05-26T12:27:51.636Z,100725.47
2019-05-26T12:30:20.131Z,100715.59
2019-05-26T12:32:48.584Z,100719.06
2019-05-26T12:35:17.540Z,100706.50
2019-05-26T12:37:48.312Z,100711.22
2019-05-26T12:40:16.880Z,100709.97
2019-05-26T12:42:45.313Z,100708.23
2019-05-26T12:45:14.597Z,100700.52
2019-05-26T12:47:46.499Z,100704.95
2019-05-26T12:50:16.138Z,100697.71
2019-05-26T12:52:44.562Z,100699.01
2019-05-26T12:55:13.144Z,100691.31
2019-05-26T12:57:41.593Z,100695.00
2019-05-26T13:00:11.357Z,100690.92
2019-05-26T13:02:39.801Z,100689.19
2019-05-26T13:05:09.171Z,100681.55
2019-05-26T13:07:36.895Z,100685.74
2019-05-26T13:10:09.744Z,100677.78
2019-05-26T13:12:38.252Z,100677.21
2019-05-26T13:15:13.322Z,100662.17
2019-05-26T13:17:41.823Z,100686.97
2019-05-26T13:20:11.516Z,100683.55
2019-05-26T13:22:40.777Z,100680.38
2019-05-26T13:25:10.203Z,100675.72
2019-05-26T13:27:38.611Z,100684.37
2019-05-26T13:30:21.632Z,100676.12
2019-05-26T13:32:50.101Z,100681.66
2019-05-26T13:35:19.486Z,100672.95
2019-05-26T13:37:47.943Z,100677.33
2019-05-26T13:40:16.527Z,100672.03
2019-05-26T13:42:44.966Z,100663.63
2019-05-26T13:45:22.580Z,100665.76
2019-05-26T13:47:44.889Z,100665.29
2019-05-26T13:50:15.196Z,100664.29
2019-05-26T13:52:43.631Z,100656.81
2019-05-26T13:55:13.113Z,100655.23
2019-05-26T13:57:41.563Z,100651.20
2019-05-26T14:00:12.439Z,100655.72
2019-05-26T14:02:40.857Z,100654.36
2019-05-26T14:05:09.878Z,100651.03
2019-05-26T14:07:38.461Z,100645.41
2019-05-26T14:10:07.745Z,100647.86
2019-05-26T14:12:36.186Z,100562.77
2019-05-26T14:15:07.571Z,100652.16
2019-05-26T14:17:36.088Z,100657.72
2019-05-26T14:20:09.217Z,100656.70
2019-05-26T14:22:37.633Z,100655.88
2019-05-26T14:25:09.049Z,100648.68
2019-05-26T14:27:37.510Z,100426.64
2019-05-26T14:30:07.567Z,100649.64
2019-05-26T14:32:35.995Z,100653.94
2019-05-26T14:35:06.493Z,100655.11
2019-05-26T14:37:34.915Z,100649.38
2019-05-26T14:40:05.030Z,100653.97
2019-05-26T14:42:32.717Z,100649.25
2019-05-26T14:45:03.881Z,100651.89
2019-05-26T14:47:31.263Z,100647.70
2019-05-26T14:49:59.711Z,100648.97
2019-05-26T14:52:28.157Z,100637.46
2019-05-26T14:54:56.603Z,100634.31
2019-05-26T14:57:25.046Z,100629.95
2019-05-26T14:59:53.463Z,100635.66
2019-05-26T15:02:21.913Z,100624.48
2019-05-26T15:04:50.351Z,100628.66
2019-05-26T15:07:18.793Z,100627.64
2019-05-26T15:09:47.233Z,100631.67
2019-05-26T15:12:15.675Z,100632.73
2019-05-26T15:14:44.097Z,100624.36
2019-05-26T15:17:12.536Z,100616.43
2019-05-26T15:19:40.963Z,100622.52
2019-05-26T15:22:09.460Z,100626.89
2019-05-26T15:24:37.894Z,100611.95
2019-05-26T15:27:06.620Z,100614.58
2019-05-26T15:29:35.030Z,100608.15
2019-05-26T15:32:03.477Z,100589.70
2019-05-26T15:34:31.976Z,100586.16
2019-05-26T15:37:00.403Z,100591.98
2019-05-26T15:39:28.840Z,100590.93
2019-05-26T15:41:57.387Z,100590.02
2019-05-26T15:44:25.943Z,100583.91
2019-05-26T15:46:54.378Z,100578.26
2019-05-26T15:49:23.674Z,100578.04
2019-05-26T15:51:52.208Z,100578.65
2019-05-26T15:54:20.633Z,100565.67
2019-05-26T15:56:49.066Z,100560.28
2019-05-26T15:59:17.485Z,100555.24
2019-05-26T16:01:47.404Z,100553.05
2019-05-26T16:04:15.839Z,100543.23
2019-05-26T16:06:44.296Z,100543.45
2019-05-26T16:09:12.717Z,100530.39
2019-05-26T16:11:43.454Z,100529.33
2019-05-26T16:14:10.583Z,100529.66
2019-05-26T16:16:41.546Z,100515.81
2019-05-26T16:19:08.367Z,100514.79
2019-05-26T16:21:36.739Z,100512.27
2019-05-26T16:24:05.380Z,100510.08
2019-05-26T16:26:33.803Z,100505.84
2019-05-26T16:29:02.243Z,100507.20
2019-05-26T16:31:30.795Z,100505.86
2019-05-26T16:33:59.316Z,100514.77
2019-05-26T16:36:27.855Z,100528.51
2019-05-26T16:38:56.412Z,100526.23
2019-05-26T16:41:24.840Z,100538.60
2019-05-26T16:43:53.331Z,100529.77
2019-05-26T16:46:21.783Z,100530.48
2019-05-26T16:48:54.049Z,100536.70
2019-05-26T16:51:20.388Z,100538.37
2019-05-26T16:53:48.809Z,100538.00
2019-05-26T16:56:17.253Z,100533.80
2019-05-26T16:58:45.696Z,100532.95
2019-05-26T17:01:14.171Z,100537.00
2019-05-26T17:03:42.593Z,100536.73
2019-05-26T17:06:11.041Z,100539.26
2019-05-26T17:08:39.477Z,100534.41
2019-05-26T17:11:07.945Z,100540.37
2019-05-26T17:13:36.369Z,100544.98
2019-05-26T17:16:04.816Z,100553.08
2019-05-26T17:18:33.260Z,100553.53
2019-05-26T17:21:01.749Z,100548.83
2019-05-26T17:23:30.242Z,100551.06
2019-05-26T17:25:58.687Z,100552.72
2019-05-26T17:28:27.118Z,100556.67
2019-05-26T17:30:55.539Z,100557.47
2019-05-26T17:33:23.967Z,100557.67
2019-05-26T17:35:52.401Z,100567.23
2019-05-26T17:38:20.845Z,100559.16
2019-05-26T17:40:49.399Z,100562.37
2019-05-26T17:43:17.861Z,100563.48
2019-05-26T17:45:46.954Z,100557.67
2019-05-26T17:48:15.387Z,100568.60
2019-05-26T17:50:43.940Z,100570.07
2019-05-26T17:53:12.379Z,100567.88
2019-05-26T17:55:40.820Z,100562.78
2019-05-26T17:58:09.289Z,100565.66
2019-05-26T18:00:37.733Z,100564.06
2019-05-26T18:03:06.163Z,100561.02
2019-05-26T18:05:35.384Z,100561.61
2019-05-26T18:08:04.343Z,100559.91
2019-05-26T18:10:32.770Z,100553.42
2019-05-26T18:13:01.241Z,100560.75
2019-05-26T18:15:29.736Z,100564.77
2019-05-26T18:17:58.176Z,100557.25
2019-05-26T18:20:26.607Z,100556.23
2019-05-26T18:22:55.112Z,100554.23
2019-05-26T18:25:23.556Z,100563.69
2019-05-26T18:27:52.025Z,100559.19
2019-05-26T18:30:20.453Z,100559.70
2019-05-26T18:32:49.287Z,100555.52
2019-05-26T18:35:17.802Z,100560.31
2019-05-26T18:37:46.173Z,100558.06
2019-05-26T18:40:15.344Z,100554.91
2019-05-26T18:42:43.810Z,100548.25
2019-05-26T18:45:13.057Z,100550.17
2019-05-26T18:47:41.529Z,100546.00
2019-05-26T18:50:10.201Z,100541.89
2019-05-26T18:52:38.642Z,100554.50
2019-05-26T18:55:08.323Z,100546.73
2019-05-26T18:57:36.758Z,100550.61
2019-05-26T19:00:09.551Z,100543.34
2019-05-26T19:02:37.970Z,100545.65
2019-05-26T19:05:06.825Z,100533.52
2019-05-26T19:07:35.265Z,100534.44
2019-05-26T19:10:04.843Z,100533.79
2019-05-26T19:12:33.281Z,100528.78
2019-05-26T19:15:01.691Z,100530.45
2019-05-26T19:17:30.120Z,100533.48
2019-05-26T19:20:12.856Z,100526.41
2019-05-26T19:22:28.705Z,100530.13
2019-05-26T19:24:57.146Z,100521.08
2019-05-26T19:27:25.609Z,100533.59
2019-05-26T19:29:54.060Z,100515.41
2019-05-26T19:32:22.490Z,100512.72
2019-05-26T19:34:50.997Z,100513.88
2019-05-26T19:37:19.442Z,100510.54
2019-05-26T19:39:47.872Z,100510.86
2019-05-26T19:42:16.339Z,100515.05
2019-05-26T19:44:44.811Z,100510.86
2019-05-26T19:47:13.480Z,100508.87
2019-05-26T19:50:14.263Z,100508.36
2019-05-26T19:52:41.746Z,100505.39
2019-05-26T19:55:11.011Z,100503.02
2019-05-26T19:57:39.476Z,100497.25
2019-05-26T20:00:14.044Z,100487.68
2019-05-26T20:02:42.477Z,100494.23
2019-05-26T20:05:11.745Z,100488.00
2019-05-26T20:07:40.270Z,100490.00
2019-05-26T20:10:10.654Z,100484.28
2019-05-26T20:12:39.083Z,100485.83
2019-05-26T20:15:09.456Z,100478.19
2019-05-26T20:17:37.154Z,100474.98
2019-05-26T20:20:09.111Z,100472.07
2019-05-26T20:22:37.563Z,100485.39
2019-05-26T20:25:08.123Z,100474.47
2019-05-26T20:27:36.566Z,100473.64
2019-05-26T20:30:07.745Z,100475.44
2019-05-26T20:32:36.246Z,100478.97
2019-05-26T20:35:09.514Z,100473.12
2019-05-26T20:37:37.939Z,100475.44
2019-05-26T20:40:07.815Z,100475.44
2019-05-26T20:42:36.244Z,100474.47
2019-05-26T20:45:07.323Z,100480.32
2019-05-26T20:47:35.753Z,100465.69
2019-05-26T20:50:08.618Z,100470.89
2019-05-26T20:52:37.077Z,100472.75
2019-05-26T20:55:09.691Z,100475.44
2019-05-26T20:57:38.139Z,100474.61
2019-05-26T21:00:09.594Z,100469.54
2019-05-26T21:02:38.698Z,100468.00
2019-05-26T21:05:07.775Z,100475.58
2019-05-26T21:07:36.230Z,100470.70
2019-05-26T21:10:06.430Z,100468.75
2019-05-26T21:12:34.127Z,100463.87
2019-05-26T21:15:02.529Z,100469.75
2019-05-26T21:17:30.932Z,100468.37
2019-05-26T21:19:59.356Z,100463.16
2019-05-26T21:22:27.791Z,100466.38
2019-05-26T21:24:56.216Z,100471.13
2019-05-26T21:27:24.682Z,100471.58
2019-05-26T21:29:53.099Z,100467.16
2019-05-26T21:32:21.573Z,100472.55
2019-05-26T21:34:50.008Z,100469.85
2019-05-26T21:37:18.439Z,100473.38
2019-05-26T21:39:47.056Z,100474.41
2019-05-26T21:42:16.166Z,100486.99
2019-05-26T21:44:44.612Z,100483.84
2019-05-26T21:47:13.050Z,100486.99
2019-05-26T21:49:41.486Z,100491.42
2019-05-26T21:52:09.908Z,100484.36
2019-05-26T21:54:41.174Z,100486.91
2019-05-26T21:57:08.559Z,100481.91
2019-05-26T21:59:37.000Z,100487.81
2019-05-26T22:02:05.870Z,100482.05
2019-05-26T22:04:34.398Z,100486.79
2019-05-26T22:07:02.826Z,100471.83
2019-05-26T22:09:31.242Z,100486.61
2019-05-26T22:11:59.743Z,100477.69
2019-05-26T22:14:28.164Z,100483.12
2019-05-26T22:16:56.613Z,100486.20
2019-05-26T22:19:25.033Z,100478.68
2019-05-26T22:21:53.467Z,100484.39
2019-05-26T22:24:21.890Z,100469.98
2019-05-26T22:26:50.327Z,100466.96
2019-05-26T22:29:18.741Z,100475.88
2019-05-26T22:31:47.189Z,100467.15
2019-05-26T22:34:15.647Z,100454.52
2019-05-26T22:36:44.068Z,100462.45
2019-05-26T22:39:12.537Z,100454.75
2019-05-26T22:41:40.957Z,100444.67
2019-05-26T22:44:09.375Z,100454.66
2019-05-26T22:46:37.813Z,100446.68
2019-05-26T22:49:06.282Z,100448.16
2019-05-26T22:51:34.676Z,100450.67
2019-05-26T22:54:03.120Z,100432.38
2019-05-26T22:56:31.550Z,100443.85
2019-05-26T22:58:59.985Z,100442.26
2019-05-26T23:01:28.417Z,100441.61
2019-05-26T23:03:56.831Z,100447.00
2019-05-26T23:06:25.256Z,100446.08
2019-05-26T23:08:53.717Z,100443.28
2019-05-26T23:11:22.166Z,100439.94
2019-05-26T23:13:50.577Z,100439.47
2019-05-26T23:16:19.231Z,100440.50
2019-05-26T23:18:47.727Z,100446.72
2019-05-26T23:21:16.141Z,100434.46
2019-05-26T23:23:44.563Z,100429.22
2019-05-26T23:26:12.981Z,100416.82
2019-05-26T23:28:41.403Z,100420.21
2019-05-26T23:31:09.824Z,100404.84
2019-05-26T23:33:38.265Z,100398.99
2019-05-26T23:36:06.699Z,100407.39
2019-05-26T23:38:35.156Z,100403.69
2019-05-26T23:41:03.578Z,100409.44
2019-05-26T23:43:32.021Z,100409.44
2019-05-26T23:46:00.444Z,100398.30
2019-05-26T23:48:28.875Z,100399.18
2019-05-26T23:50:57.297Z,100411.84
2019-05-26T23:53:25.727Z,100406.83
2019-05-26T23:55:54.170Z,100401.30
2019-05-26T23:58:22.587Z,100398.10
